Blandford, Massachusetts
Current Conditions -  °F | °C
As of 2:53 PM on Wednesday 17 Dec 2014 (Local Time) from KBAF Reporting Station
Overcast Overcast  
Wind Chill:   Ceiling: 2500
Heat Index:   Visibility: 10mi
Dew Point:   Wind: 7mph
Humidity: 68%   Direction: 300°WNW
Pressure: 29.75"   Gusts: 17mph
Location:  42.18°N, 72.93°W
Report Text: KBAF 171953Z 30006G15KT 10SM OVC025 09/03 A2975 RMK AO2 SLP079 T00890033
Loading
Personal Weather Stations






























Interactive Weather Map New forecast layout! Learn more

10-Day Weather Forecast

Advertisements
Track Severe Weather on mobile